• Join FlightAware (Why Join?)
  • Login
  • US Flag 
02:50PM EST


 

Airport Tracker/Info


-or-


 

Live Flight TrackerFlight Track Log ✈ DAL1475 ✈ 10-Apr-2013 ✈ KSAV - KATL

Flight Track Log - Related Links

Times and Time Zones

All times are in EDT time to prevent confusion due to time zone crossing. See the DAL1475 flight status page for this flight to view local times or setup timezone preferences in your user account.

Time Position Orientation Groundspeed Altitude Reporting Facility
EDT Latitude Longitude Course Direction KTS MPH feet Rate Location/Type
06:21PM 32.1297 -81.1681 14° North 158 182 2,200  Level Jacksonville Center
06:22PM 32.1839 -81.1522 14° North 158 182 4,300 1,980 Climbing Jacksonville Center
06:23PM 32.2078 -81.2328 289° West 208 239 6,200 2,640 Climbing Jacksonville Center
06:24PM 32.2319 -81.3133 290° West 277 319 9,600 3,000 Climbing Jacksonville Center
06:25PM 32.2625 -81.4258 288° West 311 358 12,200 2,580 Climbing Jacksonville Center
06:26PM 32.2908 -81.5433 286° West 365 420 14,800 2,700 Climbing Jacksonville Center
06:27PM 32.3150 -81.6586 284° West 401 461 17,700 2,820 Climbing Jacksonville Center
06:28PM 32.3478 -81.8033 285° West 406 467 20,500 2,100 Climbing Jacksonville Center
06:29PM 32.3758 -81.9356 284° West 413 475 22,000 1,080 Climbing Jacksonville Center
06:29PM 32.3847 -81.9825 283° West 415 478 22,000  Level Atlanta Center
06:30PM 32.4119 -82.1147 284° West 410 472 22,000  Level Atlanta Center
06:31PM 32.4411 -82.2472 285° West 410 472 22,000  Level Atlanta Center
06:32PM 32.4658 -82.3747 283° West 410 472 22,000  Level Atlanta Center
06:33PM 32.4947 -82.5022 285° West 410 472 22,000  Level Atlanta Center
06:34PM 32.5192 -82.6247 283° West 404 465 22,000  Level Atlanta Center
06:35PM 32.5456 -82.7453 285° West 392 451 22,000  Level Atlanta Center
06:36PM 32.5822 -82.8656 290° West 392 451 22,000  Level Atlanta Center
06:37PM 32.6456 -82.9558 310° West 383 441 22,000  Level Atlanta Center
06:39PM 32.7091 -83.0519 308° West  Level FlightAware Approximate
06:39PM 32.7786 -83.1544 308° West 393 452 22,000  Level Atlanta Center
06:40PM 32.8461 -83.2550 309° West 393 452 22,000 -120 Level Atlanta Center
06:41PM 32.9136 -83.3508 310° West 393 452 21,800 -900 Descending Atlanta Center
06:42PM 32.9767 -83.4519 307° West 393 452 20,200 -1,500 Descending Atlanta Center
06:43PM 33.0419 -83.5481 309° West 386 444 18,900 -1,440 Descending Atlanta Center
06:44PM 33.1047 -83.6444 308° West 369 425 17,400 -1,800 Descending Atlanta Center
06:45PM 33.1614 -83.7261 310° West 334 384 15,300 -2,040 Descending Atlanta Center
06:46PM 33.1833 -83.7500 318° Northwest 318 366 14,800 -1,260 Descending Atlanta TRACON
06:47PM 33.2333 -83.8333 306° West 315 362 13,700 -1,080 Descending Atlanta TRACON
06:47PM 33.2703 -83.8922 307° West 318 366 13,000 -1,020 Descending Atlanta Center
06:48PM 33.3267 -83.9742 309° West 319 367 12,000 -540 Descending Atlanta Center
06:49PM 33.3789 -84.0561 307° West 319 367 12,000  Level Atlanta Center
06:51PM 33.4500 -84.1500 312° West 282 325 12,000  Level Atlanta TRACON
06:52PM 33.4833 -84.2167 301° West 285 328 12,000 -60 Level Atlanta TRACON
06:53PM 33.5333 -84.3000 306° West 284 327 11,900 -720 Descending Atlanta TRACON
06:54PM 33.5500 -84.3833 284° West 272 313 10,700 -1,680 Descending Atlanta TRACON
06:55PM 33.5500 -84.4667 270° West 269 310 8,600 -1,980 Descending Atlanta TRACON
06:56PM 33.5500 -84.5500 270° West 251 289 6,800 -1,740 Descending Atlanta TRACON
06:57PM 33.5500 -84.6333 270° West 229 264 5,300 -1,500 Descending Atlanta TRACON
06:58PM 33.5667 -84.6833 292° West 216 249 3,900 -1,200 Descending Atlanta TRACON
06:59PM 33.6000 -84.6500 40° Northeast 187 215 2,800 -600 Descending Atlanta TRACON
07:00PM 33.6333 -84.6000 51° Northeast 190 219 2,700 -240 Descending Atlanta TRACON
07:01PM 33.6333 -84.5333 90° East 179 206 2,400 -540 Descending Atlanta TRACON
07:02PM 33.6333 -84.4833 90° East 132 152 1,700 -720 Descending Atlanta TRACON